createdAt,value
2019-01-24T00:01:07.579Z,28.87
2019-01-24T00:03:36.757Z,27.10
2019-01-24T00:06:05.751Z,28.83
2019-01-24T00:08:34.807Z,27.80
2019-01-24T00:11:03.818Z,28.80
2019-01-24T00:13:32.770Z,27.40
2019-01-24T00:16:01.845Z,26.77
2019-01-24T00:18:30.895Z,28.17
2019-01-24T00:20:59.916Z,28.20
2019-01-24T00:23:28.964Z,26.23
2019-01-24T00:25:57.973Z,28.63
2019-01-24T00:28:26.991Z,27.83
2019-01-24T00:30:56.072Z,31.87
2019-01-24T00:33:25.061Z,30.53
2019-01-24T00:35:54.132Z,29.57
2019-01-24T00:38:23.162Z,30.57
2019-01-24T00:40:52.098Z,28.07
2019-01-24T00:43:21.113Z,30.53
2019-01-24T00:45:50.146Z,26.77
2019-01-24T00:48:19.276Z,30.10
2019-01-24T00:50:48.358Z,29.43
2019-01-24T00:53:17.397Z,30.40
2019-01-24T00:55:46.411Z,28.17
2019-01-24T00:58:15.520Z,29.90
2019-01-24T01:00:44.567Z,29.77
2019-01-24T01:03:13.702Z,28.70
2019-01-24T01:05:42.846Z,27.13
2019-01-24T01:08:11.898Z,30.63
2019-01-24T01:10:40.831Z,28.77
2019-01-24T01:13:09.831Z,29.17
2019-01-24T01:15:38.901Z,28.57
2019-01-24T01:18:07.974Z,27.03
2019-01-24T01:20:37.057Z,29.50
2019-01-24T01:23:06.189Z,29.83
2019-01-24T01:25:35.242Z,29.03
2019-01-24T01:28:04.285Z,31.27
2019-01-24T01:30:33.412Z,31.57
2019-01-24T01:33:02.419Z,29.03
2019-01-24T01:35:31.333Z,30.10
2019-01-24T01:38:00.362Z,30.40
2019-01-24T01:40:29.461Z,30.63
2019-01-24T01:42:58.517Z,29.67
2019-01-24T01:45:27.562Z,31.37
2019-01-24T01:47:56.736Z,28.40
2019-01-24T01:50:26.013Z,30.07
2019-01-24T01:52:55.091Z,30.40
2019-01-24T01:55:24.181Z,27.93
2019-01-24T01:57:53.219Z,30.20
2019-01-24T02:00:23.751Z,28.50
2019-01-24T02:02:52.827Z,28.70
2019-01-24T02:05:21.792Z,28.23
2019-01-24T02:07:50.965Z,28.93
2019-01-24T02:10:21.894Z,28.00
2019-01-24T02:12:50.904Z,31.03
2019-01-24T02:15:19.905Z,30.37
2019-01-24T02:17:48.926Z,30.03
2019-01-24T02:20:22.575Z,28.17
2019-01-24T02:22:51.788Z,28.70
2019-01-24T02:25:20.922Z,29.37
2019-01-24T02:27:50.006Z,28.10
2019-01-24T02:30:24.481Z,29.03
2019-01-24T02:32:53.508Z,29.20
2019-01-24T02:35:22.484Z,29.57
2019-01-24T02:37:51.592Z,31.00
2019-01-24T02:40:20.686Z,29.87
2019-01-24T02:42:49.713Z,30.33
2019-01-24T02:45:19.863Z,30.93
2019-01-24T02:47:48.909Z,31.07
2019-01-24T02:50:19.184Z,29.63
2019-01-24T02:52:48.381Z,29.13
2019-01-24T02:55:17.416Z,27.83
2019-01-24T02:57:46.386Z,29.77
2019-01-24T03:00:20.163Z,28.33
2019-01-24T03:02:49.216Z,27.47
2019-01-24T03:05:20.077Z,29.00
2019-01-24T03:07:49.229Z,26.53
2019-01-24T03:10:18.358Z,27.27
2019-01-24T03:12:50.479Z,28.97
2019-01-24T03:15:20.672Z,24.70
2019-01-24T03:17:49.755Z,28.97
2019-01-24T03:20:18.771Z,26.20
2019-01-24T03:22:47.787Z,29.83
2019-01-24T03:25:16.926Z,28.37
2019-01-24T03:27:46.017Z,29.20
2019-01-24T03:30:17.169Z,27.67
2019-01-24T03:32:46.265Z,26.67
2019-01-24T03:35:17.607Z,27.07
2019-01-24T03:37:46.687Z,29.03
2019-01-24T03:40:15.747Z,28.17
2019-01-24T03:42:44.804Z,28.23
2019-01-24T03:45:15.095Z,31.23
2019-01-24T03:47:44.201Z,30.17
2019-01-24T03:50:15.409Z,30.23
2019-01-24T03:52:44.423Z,30.23
2019-01-24T03:55:14.908Z,29.70
2019-01-24T03:57:43.906Z,30.40
2019-01-24T04:00:17.983Z,31.90
2019-01-24T04:02:47.054Z,29.30
2019-01-24T04:05:16.150Z,31.20
2019-01-24T04:07:45.253Z,27.77
2019-01-24T04:10:16.319Z,29.03
2019-01-24T04:12:45.572Z,28.67
2019-01-24T04:15:17.327Z,30.17
2019-01-24T04:17:46.411Z,29.97
2019-01-24T04:20:16.425Z,29.03
2019-01-24T04:22:45.490Z,28.57
2019-01-24T04:25:33.854Z,31.03
2019-01-24T04:28:02.906Z,28.40
2019-01-24T04:30:31.998Z,29.43
2019-01-24T04:33:01.075Z,32.07
2019-01-24T04:35:30.146Z,28.63
2019-01-24T04:37:59.243Z,31.57
2019-01-24T04:40:28.305Z,28.37
2019-01-24T04:42:57.393Z,30.73
2019-01-24T04:45:26.403Z,29.97
2019-01-24T04:47:55.417Z,30.80
2019-01-24T04:50:24.465Z,29.83
2019-01-24T04:52:53.497Z,28.53
2019-01-24T04:55:22.579Z,28.07
2019-01-24T04:57:51.633Z,29.07
2019-01-24T05:00:23.327Z,27.37
2019-01-24T05:02:52.770Z,29.27
2019-01-24T05:05:27.677Z,28.40
2019-01-24T05:07:52.618Z,29.40
2019-01-24T05:10:21.687Z,29.43
2019-01-24T05:12:50.714Z,29.20
2019-01-24T05:15:19.655Z,28.73
2019-01-24T05:17:48.737Z,26.67
2019-01-24T05:20:17.802Z,29.67
2019-01-24T05:22:46.804Z,30.93
2019-01-24T05:25:16.856Z,30.87
2019-01-24T05:27:45.901Z,30.63
2019-01-24T05:30:17.943Z,32.03
2019-01-24T05:32:47.030Z,30.60
2019-01-24T05:35:16.232Z,31.97
2019-01-24T05:37:45.258Z,31.87
2019-01-24T05:40:14.279Z,30.83
2019-01-24T05:42:43.329Z,32.67
2019-01-24T05:45:12.484Z,30.73
2019-01-24T05:47:41.438Z,31.27
2019-01-24T05:50:10.808Z,31.43
2019-01-24T05:52:39.825Z,31.93
2019-01-24T05:55:09.323Z,31.60
2019-01-24T05:57:38.352Z,32.53
2019-01-24T06:00:09.936Z,31.30
2019-01-24T06:02:38.946Z,32.00
2019-01-24T06:05:08.996Z,32.77
2019-01-24T06:07:37.936Z,33.80
2019-01-24T06:10:09.781Z,34.00
2019-01-24T06:12:38.966Z,31.23
2019-01-24T06:15:10.462Z,32.00
2019-01-24T06:17:39.472Z,32.93
2019-01-24T06:20:08.560Z,30.23
2019-01-24T06:22:37.636Z,31.57
2019-01-24T06:25:06.932Z,33.10
2019-01-24T06:27:35.990Z,32.00
2019-01-24T06:30:06.065Z,31.87
2019-01-24T06:32:34.999Z,32.07
2019-01-24T06:35:04.011Z,33.90
2019-01-24T06:37:33.141Z,32.27
2019-01-24T06:40:02.130Z,33.40
2019-01-24T06:42:31.197Z,32.63
2019-01-24T06:45:00.242Z,31.97
2019-01-24T06:47:29.399Z,31.17
2019-01-24T06:49:58.484Z,33.53
2019-01-24T06:52:27.512Z,32.00
2019-01-24T06:54:56.452Z,31.93
2019-01-24T06:57:25.539Z,36.53
2019-01-24T06:59:54.539Z,33.97
2019-01-24T07:02:23.476Z,33.43
2019-01-24T07:04:52.541Z,32.70
2019-01-24T07:07:21.480Z,32.20
2019-01-24T07:09:50.580Z,31.83
2019-01-24T07:12:19.632Z,32.03
2019-01-24T07:14:48.718Z,30.07
2019-01-24T07:17:17.768Z,32.60
2019-01-24T07:19:46.829Z,30.67
2019-01-24T07:22:15.866Z,30.70
2019-01-24T07:24:44.994Z,30.57
2019-01-24T07:27:14.056Z,28.63
2019-01-24T07:29:43.160Z,29.83
2019-01-24T07:32:12.192Z,28.67
2019-01-24T07:34:41.348Z,28.23
2019-01-24T07:37:10.227Z,29.63
2019-01-24T07:39:39.259Z,27.93
2019-01-24T07:42:08.255Z,29.73
2019-01-24T07:44:56.519Z,28.13
2019-01-24T07:47:25.521Z,28.20
2019-01-24T07:49:54.685Z,29.53
2019-01-24T07:52:23.682Z,29.87
2019-01-24T07:54:52.751Z,28.63
2019-01-24T07:57:21.909Z,28.23
2019-01-24T07:59:51.003Z,25.97
2019-01-24T08:02:20.062Z,31.23
2019-01-24T08:04:49.077Z,28.40
2019-01-24T08:07:18.032Z,28.90
2019-01-24T08:09:47.138Z,29.77
2019-01-24T08:12:16.155Z,29.47
2019-01-24T08:14:45.259Z,29.53
2019-01-24T08:17:14.279Z,28.57
2019-01-24T08:19:43.416Z,25.60
2019-01-24T08:22:12.354Z,27.03
2019-01-24T08:24:41.475Z,28.10
2019-01-24T08:27:10.589Z,27.27
2019-01-24T08:29:39.602Z,26.57
2019-01-24T08:32:08.603Z,25.47
2019-01-24T08:34:37.600Z,27.93
2019-01-24T08:37:06.642Z,30.00
2019-01-24T08:39:35.738Z,24.83
2019-01-24T08:42:04.790Z,27.37
2019-01-24T08:44:53.002Z,27.37
2019-01-24T08:47:22.170Z,28.07
2019-01-24T08:49:51.212Z,28.90
2019-01-24T08:52:20.421Z,25.33
2019-01-24T08:54:49.480Z,25.90
2019-01-24T08:57:18.597Z,29.20
2019-01-24T08:59:47.656Z,27.03
2019-01-24T09:02:16.693Z,26.00
2019-01-24T09:04:45.690Z,29.70
2019-01-24T09:07:14.879Z,30.73
2019-01-24T09:09:43.876Z,29.47
2019-01-24T09:12:12.956Z,31.10
2019-01-24T09:14:41.994Z,30.90
2019-01-24T09:17:10.999Z,31.80
2019-01-24T09:19:39.947Z,28.77
2019-01-24T09:22:08.979Z,30.90
2019-01-24T09:24:38.049Z,30.83
2019-01-24T09:27:06.996Z,28.57
2019-01-24T09:29:36.058Z,29.53
2019-01-24T09:32:05.135Z,30.63
2019-01-24T09:34:34.143Z,29.83
2019-01-24T09:37:03.177Z,29.87
2019-01-24T09:39:32.198Z,29.97
2019-01-24T09:42:01.293Z,31.43
2019-01-24T09:44:30.280Z,32.20
2019-01-24T09:46:59.237Z,31.27
2019-01-24T09:49:28.308Z,29.83
2019-01-24T09:51:57.381Z,30.03
2019-01-24T09:54:26.528Z,29.00
2019-01-24T09:56:55.446Z,32.40
2019-01-24T09:59:24.418Z,34.80
2019-01-24T10:01:53.409Z,32.53
2019-01-24T10:04:22.294Z,32.83
2019-01-24T10:06:51.344Z,31.20
2019-01-24T10:09:20.264Z,31.13
2019-01-24T10:11:49.318Z,31.43
2019-01-24T10:14:18.396Z,32.10
2019-01-24T10:16:47.473Z,31.77
2019-01-24T10:19:16.488Z,31.83
2019-01-24T10:21:45.524Z,32.60
2019-01-24T10:24:14.667Z,32.60
2019-01-24T10:26:43.790Z,31.57
2019-01-24T10:29:12.780Z,31.57
2019-01-24T10:31:42.080Z,31.60
2019-01-24T10:34:11.255Z,28.80
2019-01-24T10:36:43.154Z,31.13
2019-01-24T10:39:11.061Z,31.30
2019-01-24T10:41:40.147Z,28.97
2019-01-24T10:44:09.245Z,31.40
2019-01-24T10:46:38.347Z,29.83
2019-01-24T10:49:07.467Z,30.30
2019-01-24T10:51:36.706Z,31.67
2019-01-24T10:54:05.731Z,31.53
2019-01-24T10:56:35.299Z,29.00
2019-01-24T10:59:04.537Z,28.50
2019-01-24T11:01:33.575Z,28.77
2019-01-24T11:04:02.691Z,29.70
2019-01-24T11:06:31.786Z,29.90
2019-01-24T11:09:00.845Z,32.20
2019-01-24T11:11:29.933Z,31.43
2019-01-24T11:13:59.159Z,31.83
2019-01-24T11:16:28.285Z,30.43
2019-01-24T11:18:57.425Z,31.30
2019-01-24T11:21:26.630Z,30.47
2019-01-24T11:23:55.706Z,28.43
2019-01-24T11:26:24.798Z,30.37
2019-01-24T11:28:53.809Z,29.97
2019-01-24T11:31:22.931Z,30.83
2019-01-24T11:33:52.006Z,29.83
2019-01-24T11:36:21.196Z,30.10
2019-01-24T11:38:50.267Z,27.93
2019-01-24T11:41:19.280Z,30.00
2019-01-24T11:43:48.234Z,28.50
2019-01-24T11:46:17.184Z,30.50
2019-01-24T11:48:46.234Z,30.07
2019-01-24T11:51:15.300Z,32.23
2019-01-24T11:53:44.319Z,29.50
2019-01-24T11:56:13.331Z,31.73
2019-01-24T11:58:42.381Z,31.50
2019-01-24T12:01:11.502Z,31.23
2019-01-24T12:03:40.551Z,29.93
2019-01-24T12:06:09.493Z,30.90
2019-01-24T12:08:38.600Z,31.03
2019-01-24T12:11:07.567Z,31.90
2019-01-24T12:13:36.597Z,31.70
2019-01-24T12:16:05.603Z,32.00
2019-01-24T12:18:34.732Z,33.27
2019-01-24T12:21:03.814Z,29.70
2019-01-24T12:23:32.858Z,30.13
2019-01-24T12:26:02.117Z,30.57
2019-01-24T12:28:31.952Z,29.30
2019-01-24T12:31:01.207Z,30.73
2019-01-24T12:33:30.274Z,30.43
2019-01-24T12:35:59.305Z,29.97
2019-01-24T12:38:28.403Z,30.03
2019-01-24T12:40:57.463Z,29.50
2019-01-24T12:43:26.605Z,30.80
2019-01-24T12:45:55.676Z,29.67
2019-01-24T12:48:24.923Z,32.47
2019-01-24T12:50:56.484Z,31.23
2019-01-24T12:53:25.579Z,31.13
2019-01-24T12:55:54.739Z,30.23
2019-01-24T12:58:24.029Z,31.07
2019-01-24T13:00:53.542Z,30.47
2019-01-24T13:03:22.668Z,30.63
2019-01-24T13:05:51.690Z,31.63
2019-01-24T13:08:21.004Z,29.50
2019-01-24T13:10:50.199Z,31.93
2019-01-24T13:13:19.296Z,30.97
2019-01-24T13:15:48.411Z,31.57
2019-01-24T13:18:17.542Z,28.93
2019-01-24T13:20:46.493Z,30.07
2019-01-24T13:23:15.503Z,29.40
2019-01-24T13:28:45.408Z,32.53
2019-01-24T13:31:14.563Z,30.10
2019-01-24T13:33:43.590Z,28.27
2019-01-24T13:36:12.655Z,29.53
2019-01-24T13:38:41.716Z,28.80
2019-01-24T13:41:10.669Z,30.40
2019-01-24T13:43:39.723Z,26.37
2019-01-24T13:46:08.717Z,26.33
2019-01-24T13:48:37.748Z,25.40
2019-01-24T13:51:06.842Z,24.90
2019-01-24T13:53:36.045Z,25.40
2019-01-24T13:56:05.179Z,26.73
2019-01-24T13:58:34.259Z,24.30
2019-01-24T14:01:03.265Z,27.47
2019-01-24T14:03:53.743Z,26.83
2019-01-24T14:06:22.829Z,26.37
2019-01-24T14:08:51.873Z,25.00
2019-01-24T14:11:20.998Z,25.57
2019-01-24T14:13:50.002Z,26.23
2019-01-24T14:16:19.183Z,26.90
2019-01-24T14:18:48.307Z,25.13
2019-01-24T14:21:17.312Z,24.97
2019-01-24T14:23:46.336Z,25.23
2019-01-24T14:26:15.426Z,25.80
2019-01-24T14:28:44.426Z,25.53
2019-01-24T14:31:13.435Z,24.27
2019-01-24T14:33:42.470Z,24.43
2019-01-24T14:36:11.512Z,26.20
2019-01-24T14:38:43.567Z,26.13
2019-01-24T14:41:12.744Z,25.80
2019-01-24T14:43:41.798Z,26.40
2019-01-24T14:46:10.798Z,24.73
2019-01-24T14:48:39.859Z,26.23
2019-01-24T14:51:08.748Z,30.27
2019-01-24T14:53:37.690Z,28.87
2019-01-24T14:56:06.738Z,30.57
2019-01-24T14:58:35.796Z,28.67
2019-01-24T15:01:11.222Z,32.07
2019-01-24T15:03:40.055Z,30.60
2019-01-24T15:06:09.146Z,31.70
2019-01-24T15:08:38.299Z,27.40
2019-01-24T15:11:07.352Z,28.70
2019-01-24T15:13:36.501Z,30.50
2019-01-24T15:16:05.590Z,30.10
2019-01-24T15:18:34.554Z,28.30
2019-01-24T15:21:03.778Z,30.40
2019-01-24T15:23:32.985Z,32.57
2019-01-24T15:26:02.001Z,29.43
2019-01-24T15:28:50.273Z,28.53
2019-01-24T15:31:19.284Z,27.83
2019-01-24T15:33:48.375Z,29.83
2019-01-24T15:36:17.427Z,29.57
2019-01-24T15:38:46.523Z,30.53
2019-01-24T15:41:15.543Z,29.70
2019-01-24T15:43:44.668Z,29.40
2019-01-24T15:46:13.753Z,31.20
2019-01-24T15:48:43.188Z,28.43
2019-01-24T15:51:13.273Z,31.23
2019-01-24T15:53:42.353Z,29.73
2019-01-24T15:56:11.385Z,32.17
2019-01-24T15:58:40.520Z,31.90
2019-01-24T16:01:09.607Z,30.33
2019-01-24T16:03:38.656Z,31.13
2019-01-24T16:06:07.699Z,30.17
2019-01-24T16:08:36.618Z,27.87
2019-01-24T16:11:05.659Z,28.23
2019-01-24T16:13:34.798Z,27.07
2019-01-24T16:16:03.850Z,30.27
2019-01-24T16:18:32.904Z,28.57
2019-01-24T16:21:02.047Z,29.60
2019-01-24T16:23:31.116Z,28.40
2019-01-24T16:26:00.060Z,28.07
2019-01-24T16:28:29.110Z,30.23
2019-01-24T16:30:58.236Z,28.83
2019-01-24T16:33:27.310Z,29.53
2019-01-24T16:35:56.407Z,30.33
2019-01-24T16:38:25.481Z,28.87
2019-01-24T16:40:54.592Z,30.33
2019-01-24T16:43:23.693Z,29.27
2019-01-24T16:45:52.818Z,30.07
2019-01-24T16:48:21.839Z,30.53
2019-01-24T16:50:50.904Z,29.80
2019-01-24T16:53:19.998Z,28.20
2019-01-24T16:55:49.118Z,26.30
2019-01-24T16:58:18.067Z,28.33
2019-01-24T17:01:05.647Z,31.13
2019-01-24T17:03:34.710Z,27.97
2019-01-24T17:06:03.771Z,28.30
2019-01-24T17:08:33.504Z,27.43
2019-01-24T17:11:02.629Z,29.07
2019-01-24T17:13:31.681Z,28.90
2019-01-24T17:16:00.763Z,30.50
2019-01-24T17:18:29.819Z,29.07
2019-01-24T17:20:58.846Z,29.97
2019-01-24T17:23:27.827Z,27.70
2019-01-24T17:25:56.868Z,30.20
2019-01-24T17:28:25.863Z,30.17
2019-01-24T17:30:54.992Z,28.70
2019-01-24T17:33:24.052Z,30.00
2019-01-24T17:35:53.106Z,30.67
2019-01-24T17:38:23.796Z,30.23
2019-01-24T17:40:55.076Z,29.93
2019-01-24T17:43:24.052Z,28.57
2019-01-24T17:45:53.223Z,29.37
2019-01-24T17:48:25.316Z,30.77
2019-01-24T17:50:54.634Z,27.70
2019-01-24T17:53:23.833Z,29.73
2019-01-24T17:55:53.148Z,26.47
2019-01-24T17:58:22.244Z,29.23
2019-01-24T18:00:53.214Z,29.23
2019-01-24T18:03:22.478Z,30.60
2019-01-24T18:05:51.786Z,30.93
2019-01-24T18:08:21.197Z,31.10
2019-01-24T18:10:50.440Z,29.70
2019-01-24T18:13:19.618Z,29.63
2019-01-24T18:15:48.904Z,30.60
2019-01-24T18:18:18.392Z,28.97
2019-01-24T18:20:47.693Z,31.53
2019-01-24T18:23:16.906Z,28.93
2019-01-24T18:25:46.185Z,31.03
2019-01-24T18:28:15.253Z,30.87
2019-01-24T18:30:44.249Z,28.93
2019-01-24T18:33:13.286Z,29.50
2019-01-24T18:35:42.392Z,31.77
2019-01-24T18:38:11.535Z,30.50
2019-01-24T18:40:40.726Z,31.97
2019-01-24T18:43:16.735Z,29.37
2019-01-24T18:45:47.485Z,28.93
2019-01-24T18:48:16.663Z,27.93
2019-01-24T18:50:45.807Z,31.43
2019-01-24T18:53:15.030Z,29.50
2019-01-24T18:55:44.079Z,29.63
2019-01-24T18:58:13.122Z,31.63
2019-01-24T19:00:48.422Z,30.23
2019-01-24T19:03:17.656Z,29.93
2019-01-24T19:05:47.071Z,30.03
2019-01-24T19:08:16.293Z,31.00
2019-01-24T19:10:46.816Z,30.63
2019-01-24T19:13:15.833Z,31.47
2019-01-24T19:15:46.890Z,29.90
2019-01-24T19:18:16.014Z,31.53
2019-01-24T19:20:45.215Z,32.60
2019-01-24T19:23:14.338Z,32.77
2019-01-24T19:25:43.424Z,33.57
2019-01-24T19:28:14.775Z,33.07
2019-01-24T19:30:43.822Z,31.57
2019-01-24T19:33:12.938Z,34.33
2019-01-24T19:35:41.954Z,30.13
2019-01-24T19:38:11.212Z,30.87
2019-01-24T19:40:40.253Z,31.63
2019-01-24T19:43:09.429Z,30.90
2019-01-24T19:45:38.564Z,30.23
2019-01-24T19:48:07.739Z,30.80
2019-01-24T19:50:38.203Z,32.90
2019-01-24T19:53:07.587Z,31.37
2019-01-24T19:55:37.693Z,32.80
2019-01-24T19:58:07.860Z,31.07
2019-01-24T20:01:03.597Z,33.07
2019-01-24T20:03:32.767Z,30.97
2019-01-24T20:06:01.993Z,31.97
2019-01-24T20:08:31.138Z,29.73
2019-01-24T20:11:00.379Z,29.27
2019-01-24T20:13:29.509Z,32.90
2019-01-24T20:15:58.539Z,32.80
2019-01-24T20:18:27.772Z,34.17
2019-01-24T20:20:56.915Z,31.17
2019-01-24T20:23:26.120Z,31.70
2019-01-24T20:25:55.395Z,32.77
2019-01-24T20:28:24.439Z,33.10
2019-01-24T20:30:53.735Z,31.97
2019-01-24T20:33:22.901Z,31.77
2019-01-24T20:35:55.004Z,31.37
2019-01-24T20:38:24.187Z,32.10
2019-01-24T20:40:53.395Z,32.80
2019-01-24T20:43:22.606Z,30.80
2019-01-24T20:45:51.790Z,31.37
2019-01-24T20:48:20.957Z,33.47
2019-01-24T20:50:50.291Z,34.93
2019-01-24T20:53:19.357Z,32.53
2019-01-24T20:56:17.877Z,33.10
2019-01-24T20:58:45.706Z,32.37
2019-01-24T21:01:14.857Z,35.10
2019-01-24T21:03:44.003Z,33.77
2019-01-24T21:06:13.131Z,33.00
2019-01-24T21:08:42.351Z,31.90
2019-01-24T21:11:11.518Z,31.27
2019-01-24T21:13:40.683Z,30.93
2019-01-24T21:16:09.818Z,29.27
2019-01-24T21:18:39.039Z,33.23
2019-01-24T21:21:08.308Z,32.47
2019-01-24T21:23:37.596Z,31.67
2019-01-24T21:26:32.514Z,31.10
2019-01-24T21:29:01.689Z,32.60
2019-01-24T21:31:30.923Z,31.93
2019-01-24T21:34:00.094Z,31.77
2019-01-24T21:36:29.260Z,33.30
2019-01-24T21:38:58.386Z,33.27
2019-01-24T21:41:27.564Z,33.10
2019-01-24T21:43:56.632Z,33.37
2019-01-24T21:46:25.784Z,34.73
2019-01-24T21:48:55.054Z,33.83
2019-01-24T21:51:24.194Z,33.37
2019-01-24T21:53:53.334Z,33.87
2019-01-24T21:56:22.506Z,32.57
2019-01-24T21:58:51.732Z,35.80
2019-01-24T22:01:20.862Z,33.37
2019-01-24T22:03:49.966Z,33.90
2019-01-24T22:06:19.081Z,33.20
2019-01-24T22:08:48.218Z,34.20
2019-01-24T22:11:17.531Z,33.13
2019-01-24T22:13:46.669Z,33.03
2019-01-24T22:16:15.738Z,34.00
2019-01-24T22:18:44.896Z,32.27
2019-01-24T22:21:13.943Z,32.10
2019-01-24T22:23:43.147Z,34.07
2019-01-24T22:26:14.951Z,34.67
2019-01-24T22:28:44.130Z,34.40
2019-01-24T22:31:13.319Z,34.43
2019-01-24T22:33:42.586Z,33.83
2019-01-24T22:36:11.819Z,35.10
2019-01-24T22:38:40.874Z,36.77
2019-01-24T22:41:10.039Z,37.80
2019-01-24T22:43:39.188Z,35.67
2019-01-24T22:46:08.348Z,35.00
2019-01-24T22:48:37.531Z,36.50
2019-01-24T22:51:06.708Z,34.70
2019-01-24T22:53:35.817Z,33.17
2019-01-24T22:56:05.035Z,35.87
2019-01-24T22:58:34.158Z,35.17
2019-01-24T23:01:40.577Z,34.43
2019-01-24T23:04:17.690Z,31.40
2019-01-24T23:06:46.820Z,35.17
2019-01-24T23:09:18.642Z,31.57
2019-01-24T23:11:47.813Z,30.77
2019-01-24T23:14:16.992Z,32.03
2019-01-24T23:16:46.123Z,34.33
2019-01-24T23:19:15.232Z,34.77
2019-01-24T23:21:44.442Z,34.20
2019-01-24T23:24:13.554Z,32.70
2019-01-24T23:26:42.710Z,33.63
2019-01-24T23:29:11.860Z,36.27
2019-01-24T23:31:40.971Z,34.70
2019-01-24T23:34:10.127Z,33.93
2019-01-24T23:36:39.352Z,35.73
2019-01-24T23:39:10.052Z,37.33
2019-01-24T23:41:39.051Z,34.30
2019-01-24T23:44:08.243Z,35.67
2019-01-24T23:46:37.395Z,34.77
2019-01-24T23:49:08.800Z,38.90
2019-01-24T23:51:37.864Z,37.00
2019-01-24T23:54:06.989Z,35.73
2019-01-24T23:56:36.091Z,39.10
2019-01-24T23:59:05.283Z,38.43
